Latest Weather Observations for Middle Point

IDD60801

Issued at 8:01 am CST Tuesday 31 March 2015 (issued every 30 minutes, with the page automatically refreshed every 10 minutes)

About weather observations | Map of weather stations | Latest weather observations for NT | Other Formats
Station Details ID: 014041 Name: MIDDLE POINT Lat: -12.61 Lon: 131.30 Height: 14.1 m
Data from the previous 72 hours. | See also: Recent months at Middle Point
Date/Time
CST
Temp
°C
App
Temp
°C
Dew
Point
Rel
Hum
%
Delta-T
°C
Wind Press
QNH
hPa
Press
MSL
hPa
Rain
since 9 am
mm
Dir
 
Spd
km/h
Gust
km/h
Spd
kts
Gust
kts
31/08:00am 26.3 30.8 23.6 85 1.8 SSE 6 7 3 4 1013.1 1012.9 0.0
31/07:30am 24.9 30.3 23.3 91 1.1 CALM 0 4 0 2 1012.8 1012.6 0.0
31/07:00am 23.5 28.2 21.9 91 1.1 CALM 0 0 0 0 1012.5 1012.3 0.0
31/06:30am 23.8 28.3 22.2 91 1.1 S 2 2 1 1 1012.3 1012.1 0.0
31/06:00am 23.8 28.6 22.1 90 1.1 CALM 0 0 0 0 1012.1 1011.9 0.0
31/05:30am 24.3 28.6 22.7 91 1.1 S 4 4 2 2 1011.6 1011.4 0.0
31/05:00am 24.5 28.6 22.9 91 1.1 SE 6 7 3 4 1011.3 1011.1 0.0
31/04:30am 24.8 28.7 23.0 90 1.2 SSE 7 9 4 5 1011.3 1011.1 0.0
31/04:00am 25.4 30.0 23.8 91 1.1 S 6 7 3 4 1011.1 1010.9 0.0
31/03:30am 25.2 29.9 24.0 93 0.8 SSW 6 9 3 5 1011.0 1010.8 0.0
31/03:00am 24.6 30.1 23.4 93 0.8 CALM 0 6 0 3 1011.3 1011.1 0.0
31/02:30am 24.2 29.4 22.8 92 0.9 CALM 0 0 0 0 1011.6 1011.4 0.0
31/02:00am 23.6 28.3 21.9 90 1.1 CALM 0 0 0 0 1011.8 1011.6 0.0
31/01:30am 24.1 29.0 22.4 90 1.1 CALM 0 0 0 0 1012.1 1011.9 0.0
31/01:00am 24.0 28.9 22.3 90 1.1 CALM 0 0 0 0 1012.4 1012.2 0.0
31/12:30am 24.4 29.5 22.7 90 1.1 CALM 0 0 0 0 1012.7 1012.5 0.0
31/12:00am 24.3 29.4 22.6 90 1.1 CALM 0 0 0 0 1012.8 1012.6 0.0
 
Date/Time
CST
Temp
°C
App
Temp
°C
Dew
Point
Rel
Hum
%
Delta-T
°C
Wind Press
QNH
hPa
Press
MSL
hPa
Rain
since 9 am
mm
Dir
 
Spd
km/h
Gust
km/h
Spd
kts
Gust
kts
30/11:30pm 24.4 29.5 22.7 90 1.1 CALM 0 0 0 0 1012.8 1012.6 0.0
30/11:00pm 24.1 28.7 22.4 90 1.1 N 2 2 1 1 1012.9 1012.7 0.0
30/10:30pm 24.0 27.7 22.3 90 1.1 N 6 6 3 3 1012.8 1012.6 0.0
30/10:00pm 24.8 29.1 22.7 88 1.4 N 4 4 2 2 1012.7 1012.5 0.0
30/09:30pm 25.1 29.7 23.2 89 1.3 N 4 4 2 2 1012.5 1012.3 0.0
30/09:00pm 25.0 29.1 22.9 88 1.4 N 6 6 3 3 1012.2 1012.0 0.0
30/08:30pm 25.7 29.7 22.8 84 2.0 N 6 7 3 4 1011.9 1011.7 0.0
30/08:00pm 26.1 29.7 23.0 83 2.1 N 9 9 5 5 1011.7 1011.5 0.0
30/07:30pm 26.5 30.4 23.0 81 2.4 N 7 9 4 5 1011.4 1011.2 0.0
30/07:00pm 27.6 31.1 22.8 75 3.3 N 9 13 5 7 1011.2 1011.0 0.0
30/06:30pm 29.4 32.3 22.4 66 4.8 NNE 11 17 6 9 1011.0 1010.8 0.0
30/06:00pm 30.7 33.5 22.3 61 5.7 N 11 15 6 8 1010.7 1010.6 0.0
30/05:30pm 32.0 34.5 21.8 54 6.9 NE 11 17 6 9 1010.5 1010.4 0.0
30/05:00pm 32.8 33.7 20.0 47 8.5 NE 15 20 8 11 1010.3 1010.2 0.0
30/04:30pm 33.4 34.0 19.5 44 9.2 NE 15 20 8 11 1010.1 1010.0 0.0
30/04:00pm 33.2 33.7 19.3 44 9.1 NE 15 22 8 12 1010.2 1010.1 0.0
30/03:30pm 33.8 35.3 20.6 46 8.9 NE 13 22 7 12 1010.3 1010.2 0.0
30/03:00pm 32.7 33.4 19.6 46 8.6 ENE 15 22 8 12 1010.5 1010.4 0.0
30/02:30pm 33.9 34.4 19.2 42 9.7 ENE 15 20 8 11 1010.5 1010.4 0.0
30/02:00pm 33.7 34.4 19.7 43 9.3 ENE 15 20 8 11 1010.5 1010.4 0.0
30/01:30pm 33.1 34.5 19.6 45 8.9 ESE 11 19 6 10 1010.9 1010.7 0.0
30/01:00pm 33.1 34.9 19.6 45 8.9 ESE 9 17 5 9 1011.3 1011.1 0.0
30/12:30pm 32.6 33.9 20.8 49 7.9 ESE 15 19 8 10 1011.8 1011.6 0.0
30/12:00pm 31.8 35.0 21.6 54 6.9 E 7 19 4 10 1012.4 1012.2 0.0
30/11:30am 32.1 34.5 21.6 53 7.1 ENE 11 19 6 10 1012.9 1012.7 0.0
30/11:00am 31.6 34.8 22.3 57 6.3 NE 9 17 5 9 1013.1 1012.9 0.0
30/10:30am 31.1 34.3 23.0 62 5.6 E 11 19 6 10 1013.3 1013.1 0.0
30/10:00am 30.1 33.9 22.8 65 5.0 ENE 7 11 4 6 1013.2 1013.0 0.0
30/09:30am 29.2 32.7 23.6 72 3.9 ENE 11 17 6 9 1013.4 1013.2 0.0
30/09:00am 28.4 32.7 24.2 78 2.9 E 9 11 5 6 1013.2 1013.0 0.0
30/08:30am 27.4 32.4 24.5 84 2.0 E 6 9 3 5 1013.0 1012.8 0.0
30/08:00am 26.2 31.7 24.6 91 1.1 ESE 4 6 2 3 1012.7 1012.5 0.0
30/07:30am 23.4 28.0 22.4 94 0.7 SSE 2 2 1 1 1012.2 1012.0 0.0
30/07:00am 22.2 26.3 20.8 92 0.9 CALM 0 0 0 0 1011.9 1011.7 0.0
30/06:30am 22.6 26.9 21.2 92 0.9 CALM 0 0 0 0 1011.6 1011.4 0.0
30/06:00am 22.8 26.8 21.4 92 0.9 ESE 2 2 1 1 1011.3 1011.1 0.0
30/05:30am 23.1 27.3 21.7 92 0.9 ESE 2 2 1 1 1011.4 1011.2 0.0
30/05:00am 24.0 28.4 22.8 93 0.8 ESE 4 6 2 3 1011.3 1011.1 0.0
30/04:30am 23.6 28.1 22.2 92 0.9 ENE 2 2 1 1 1011.1 1010.9 0.0
30/04:00am 24.0 28.0 22.8 93 0.8 ENE 6 7 3 4 1011.1 1010.9 0.0
30/03:30am 23.3 27.9 21.7 91 1.1 CALM 0 0 0 0 1011.0 1010.8 0.0
30/03:00am 24.0 29.1 22.6 92 0.9 CALM 0 0 0 0 1011.1 1010.9 0.0
30/02:30am 24.1 29.2 22.7 92 0.9 CALM 0 0 0 0 1011.2 1011.0 0.0
30/02:00am 24.0 28.9 22.4 91 1.1 CALM 0 0 0 0 1011.5 1011.3 0.0
30/01:30am 24.3 29.4 22.7 91 1.1 CALM 0 0 0 0 1011.9 1011.7 0.0
30/01:00am 24.6 29.8 22.8 90 1.2 CALM 0 0 0 0 1012.3 1012.1 0.0
30/12:30am 24.6 29.8 22.8 90 1.2 CALM 0 0 0 0 1012.7 1012.5 0.0
30/12:00am 25.1 29.8 23.3 90 1.2 SSW 4 6 2 3 1013.0 1012.8 0.0
 
Date/Time
CST
Temp
°C
App
Temp
°C
Dew
Point
Rel
Hum
%
Delta-T
°C
Wind Press
QNH
hPa
Press
MSL
hPa
Rain
since 9 am
mm
Dir
 
Spd
km/h
Gust
km/h
Spd
kts
Gust
kts
29/11:30pm 25.4 30.2 23.5 89 1.3 SW 4 6 2 3 1013.1 1012.9 0.0
29/11:00pm 25.4 30.3 23.6 90 1.2 SW 4 4 2 2 1013.2 1013.0 0.0
29/10:30pm 25.2 29.6 23.4 90 1.2 WSW 6 7 3 4 1013.3 1013.1 0.0
29/10:00pm 25.6 30.3 23.3 87 1.6 WSW 4 6 2 3 1013.1 1012.9 0.0
29/09:30pm 26.3 32.1 24.0 87 1.6 CALM 0 0 0 0 1012.8 1012.6 0.0
29/09:00pm 26.3 31.9 24.2 88 1.4 N 2 4 1 2 1012.5 1012.3 0.0
29/08:30pm 26.6 31.4 24.1 86 1.7 N 6 6 3 3 1012.1 1011.9 0.0
29/08:00pm 27.0 32.1 24.1 84 2.0 NNW 4 6 2 3 1011.8 1011.6 0.0
29/07:30pm 27.4 32.4 23.8 81 2.5 NNW 4 6 2 3 1011.5 1011.3 0.0
29/07:00pm 28.1 32.4 23.7 77 3.0 N 7 9 4 5 1011.0 1010.8 0.0
29/06:30pm 29.3 33.3 23.7 72 3.9 N 9 13 5 7 1010.5 1010.4 0.0
29/06:00pm 30.9 34.5 23.8 66 4.9 N 11 17 6 9 1010.3 1010.2 0.0
29/05:30pm 31.8 34.9 24.1 63 5.4 N 15 20 8 11 1009.9 1009.8 0.0
29/05:00pm 32.6 34.8 23.3 58 6.4 NNE 17 22 9 12 1009.7 1009.6 0.0
29/04:30pm 33.0 34.9 22.7 54 7.1 E 17 24 9 13 1009.6 1009.5 0.0
29/04:00pm 33.9 36.0 21.0 47 8.7 ENE 11 15 6 8 1009.5 1009.4 0.0
29/03:30pm 34.1 35.7 20.8 45 9.0 E 13 19 7 10 1009.6 1009.5 0.0
29/03:00pm 33.1 36.8 22.2 52 7.5 SE 6 9 3 5 1010.0 1009.9 0.0
29/02:30pm 33.0 35.8 20.9 49 8.1 ESE 7 13 4 7 1010.3 1010.2 0.0
29/02:00pm 34.0 37.1 22.1 50 8.1 ESE 9 15 5 8 1010.5 1010.4 0.0
29/01:30pm 33.7 36.8 22.1 50 7.9 ESE 9 13 5 7 1011.0 1010.8 0.0
29/01:00pm 33.3 36.0 22.1 52 7.6 E 11 17 6 9 1011.6 1011.4 0.0
29/12:30pm 32.8 36.3 22.9 56 6.8 ESE 9 15 5 8 1012.2 1012.0 0.0
29/12:00pm 31.8 35.6 22.8 59 6.2 E 7 11 4 6 1012.8 1012.6 0.0
29/11:30am 31.6 36.0 23.4 61 5.7 SSE 6 11 3 6 1013.0 1012.8 0.0
29/11:00am 30.4 34.1 22.6 63 5.3 NE 7 11 4 6 1013.4 1013.2 0.0
29/10:30am 30.6 34.0 22.7 62 5.4 NNE 9 13 5 7 1013.5 1013.3 0.0
29/10:00am 30.3 33.5 23.0 65 5.0 NE 11 17 6 9 1013.6 1013.4 0.0
29/09:30am 29.2 33.5 22.7 68 4.4 NE 4 11 2 6 1013.4 1013.2 0.0
29/09:00am 28.4 33.5 24.0 77 3.0 ESE 4 6 2 3 1013.3 1013.1 0.2
29/08:30am 27.2 31.6 23.4 80 2.6 E 6 7 3 4 1013.0 1012.8 0.2
29/08:00am 26.3 30.9 23.2 83 2.1 SE 4 4 2 2 1012.9 1012.7 0.2
29/07:30am 25.1 30.4 23.7 92 1.0 SSE 2 4 1 2 1012.4 1012.2 0.2
29/07:00am 23.9 28.9 22.5 92 0.9 CALM 0 0 0 0 1012.1 1011.9 0.2
29/06:30am 23.8 28.7 22.4 92 0.9 CALM 0 2 0 1 1012.0 1011.8 0.2
29/06:00am 23.8 28.6 22.2 91 1.1 CALM 0 2 0 1 1011.9 1011.7 0.2
29/05:30am 24.2 29.0 22.8 92 0.9 SE 2 4 1 2 1011.7 1011.5 0.2
29/05:00am 24.3 29.4 22.7 91 1.1 CALM 0 0 0 0 1011.4 1011.2 0.2
29/04:30am 24.3 28.8 22.9 92 0.9 S 4 4 2 2 1011.3 1011.1 0.2
29/04:00am 24.3 28.8 22.9 92 0.9 ESE 4 6 2 3 1011.4 1011.2 0.2
29/03:30am 24.5 29.7 22.9 91 1.1 CALM 0 0 0 0 1011.4 1011.2 0.2
29/03:00am 24.6 28.8 23.2 92 0.9 S 6 7 3 4 1011.4 1011.2 0.2
29/02:30am 24.5 29.3 22.9 91 1.1 SSW 2 6 1 3 1011.5 1011.3 0.2
29/02:00am 24.9 30.3 23.3 91 1.1 CALM 0 0 0 0 1012.0 1011.8 0.2
29/01:30am 24.8 30.1 23.0 90 1.2 CALM 0 0 0 0 1012.4 1012.2 0.2
29/01:00am 24.6 29.7 22.7 89 1.3 CALM 0 2 0 1 1012.4 1012.2 0.2
29/12:30am 25.2 30.4 22.9 87 1.6 CALM 0 2 0 1 1012.5 1012.3 0.2
29/12:00am 25.8 28.8 22.7 83 2.1 S 11 15 6 8 1013.1 1012.9 0.2
 
Date/Time
CST
Temp
°C
App
Temp
°C
Dew
Point
Rel
Hum
%
Delta-T
°C
Wind Press
QNH
hPa
Press
MSL
hPa
Rain
since 9 am
mm
Dir
 
Spd
km/h
Gust
km/h
Spd
kts
Gust
kts
28/11:30pm 25.5 27.7 23.2 87 1.6 SSE 17 24 9 13 1013.5 1013.3 0.2
28/11:00pm 24.8 29.1 22.7 88 1.4 SSW 4 7 2 4 1013.1 1012.9 0.2
28/10:30pm 24.8 28.7 22.5 87 1.5 NNE 6 7 3 4 1012.9 1012.7 0.2
28/10:00pm 24.9 28.8 22.6 87 1.5 NNW 6 6 3 3 1012.6 1012.4 0.2
28/09:30pm 25.3 29.5 22.4 84 1.9 NW 4 6 2 3 1012.6 1012.4 0.2
28/09:00pm 25.6 29.6 22.1 81 2.3 N 4 6 2 3 1012.3 1012.1 0.2
28/08:30pm 26.0 29.0 21.9 78 2.7 NNE 9 11 5 6 1012.2 1012.0 0.2
28/08:00pm 26.9 29.7 22.3 76 3.1 NNE 11 13 6 7 1011.8 1011.6 0.2
28/07:30pm 27.9 31.6 23.3 76 3.1 NNE 9 13 5 7 1011.7 1011.5 0.2
28/07:00pm 28.4 32.4 23.1 73 3.6 N 7 9 4 5 1011.3 1011.1 0.2
28/06:30pm 29.7 33.8 23.2 68 4.5 N 7 11 4 6 1010.6 1010.5 0.2
28/06:00pm 31.0 34.2 23.1 63 5.4 N 11 17 6 9 1010.2 1010.1 0.2
28/05:30pm 31.9 35.3 23.4 60 5.9 N 11 17 6 9 1010.0 1009.9 0.2
28/05:00pm 32.6 35.6 23.3 58 6.4 N 13 17 7 9 1009.8 1009.7 0.2
28/04:30pm 33.0 36.2 23.0 55 6.9 N 11 17 6 9 1009.6 1009.5 0.2
28/04:00pm 33.6 35.4 21.1 48 8.4 NE 13 17 7 9 1009.6 1009.5 0.2
28/03:30pm 33.7 36.5 20.5 46 8.8 ESE 6 13 3 7 1009.8 1009.7 0.2
28/03:00pm 33.7 36.5 20.8 46 8.7 NE 7 13 4 7 1010.1 1010.0 0.2
28/02:30pm 33.5 36.5 22.0 51 7.8 E 9 13 5 7 1010.6 1010.5 0.2
28/02:00pm 32.9 36.3 22.0 52 7.4 NNE 7 13 4 7 1011.2 1011.0 0.2
28/01:30pm 33.2 36.8 22.0 51 7.6 ENE 6 15 3 8 1011.6 1011.4 0.2
28/01:00pm 32.8 36.5 22.6 55 7.0 ENE 7 13 4 7 1012.0 1011.8 0.2
28/12:30pm 32.2 36.7 22.9 58 6.4 S 4 7 2 4 1012.5 1012.3 0.2
28/12:00pm 32.7 37.4 23.9 60 6.1 NE 6 9 3 5 1012.9 1012.7 0.2
28/11:30am 31.1 35.6 23.0 62 5.6 NNE 4 9 2 5 1013.1 1012.9 0.2
28/11:00am 30.8 36.1 23.7 66 4.9 NNW 2 6 1 3 1013.4 1013.2 0.2
28/10:30am 30.9 35.7 23.5 64 5.1 NNE 4 13 2 7 1013.6 1013.4 0.2
28/10:00am 29.6 34.3 23.3 69 4.3 NE 4 6 2 3 1013.6 1013.4 0.2
28/09:30am 28.8 33.6 23.5 73 3.6 E 4 6 2 3 1013.3 1013.1 0.0
28/09:00am 27.7 32.4 23.3 77 3.0 ESE 4 7 2 4 1013.2 1013.0 25.6
28/08:30am 26.2 30.9 23.3 84 2.0 ESE 4 6 2 3 1012.9 1012.7 25.6

Other Formats:

Comma delimited format used in spreadsheet applications
http://www.bom.gov.au/fwo/IDD60801/IDD60801.95121.axf

JavaScript Object Notation format (JSON) in row-major order
http://www.bom.gov.au/fwo/IDD60801/IDD60801.95121.json